sensor_id;sensor_type;location;lat;lon;timestamp;temperature;humidity
50989;DHT22;37008;52.210;21.112;2023-06-14T00:01:27;11.80;99.90
50989;DHT22;37008;52.210;21.112;2023-06-14T00:03:54;11.70;99.90
50989;DHT22;37008;52.210;21.112;2023-06-14T00:06:21;11.80;99.90
50989;DHT22;37008;52.210;21.112;2023-06-14T00:08:46;11.80;99.90
50989;DHT22;37008;52.210;21.112;2023-06-14T00:11:12;11.80;99.90
50989;DHT22;37008;52.210;21.112;2023-06-14T00:13:38;11.70;99.90
50989;DHT22;37008;52.210;21.112;2023-06-14T00:16:03;11.70;99.90
50989;DHT22;37008;52.210;21.112;2023-06-14T00:18:29;11.70;99.90
50989;DHT22;37008;52.210;21.112;2023-06-14T00:20:55;11.70;99.90
50989;DHT22;37008;52.210;21.112;2023-06-14T00:23:21;11.70;99.90
50989;DHT22;37008;52.210;21.112;2023-06-14T00:25:47;11.70;99.90
50989;DHT22;37008;52.210;21.112;2023-06-14T00:28:13;11.70;99.90
50989;DHT22;37008;52.210;21.112;2023-06-14T00:30:39;11.70;99.90
50989;DHT22;37008;52.210;21.112;2023-06-14T00:33:05;11.70;99.90
50989;DHT22;37008;52.210;21.112;2023-06-14T00:35:31;11.70;99.90
50989;DHT22;37008;52.210;21.112;2023-06-14T00:37:57;11.70;99.90
50989;DHT22;37008;52.210;21.112;2023-06-14T00:40:23;11.70;99.90
50989;DHT22;37008;52.210;21.112;2023-06-14T00:42:49;11.70;99.90
50989;DHT22;37008;52.210;21.112;2023-06-14T00:45:15;11.80;99.90
50989;DHT22;37008;52.210;21.112;2023-06-14T00:47:42;11.70;99.90
50989;DHT22;37008;52.210;21.112;2023-06-14T00:50:09;11.70;99.90
50989;DHT22;37008;52.210;21.112;2023-06-14T00:52:35;11.80;99.90
50989;DHT22;37008;52.210;21.112;2023-06-14T00:55:01;11.70;99.90
50989;DHT22;37008;52.210;21.112;2023-06-14T00:57:27;11.80;99.90
50989;DHT22;37008;52.210;21.112;2023-06-14T00:59:55;11.80;99.90
50989;DHT22;37008;52.210;21.112;2023-06-14T01:02:21;11.70;99.90
50989;DHT22;37008;52.210;21.112;2023-06-14T01:04:48;11.80;99.90
50989;DHT22;37008;52.210;21.112;2023-06-14T01:12:58;11.80;99.90
50989;DHT22;37008;52.210;21.112;2023-06-14T01:15:30;11.80;99.90
50989;DHT22;37008;52.210;21.112;2023-06-14T01:17:56;11.80;99.90
50989;DHT22;37008;52.210;21.112;2023-06-14T01:20:32;11.80;99.90
50989;DHT22;37008;52.210;21.112;2023-06-14T01:23:01;11.80;99.90
50989;DHT22;37008;52.210;21.112;2023-06-14T01:25:27;11.80;99.90
50989;DHT22;37008;52.210;21.112;2023-06-14T01:27:57;11.80;99.90
50989;DHT22;37008;52.210;21.112;2023-06-14T01:30:24;11.80;99.90
50989;DHT22;37008;52.210;21.112;2023-06-14T01:32:51;11.80;99.90
50989;DHT22;37008;52.210;21.112;2023-06-14T01:35:18;11.80;99.90
50989;DHT22;37008;52.210;21.112;2023-06-14T01:37:43;11.80;99.90
50989;DHT22;37008;52.210;21.112;2023-06-14T01:40:12;11.80;99.90
50989;DHT22;37008;52.210;21.112;2023-06-14T01:42:38;11.80;99.90
50989;DHT22;37008;52.210;21.112;2023-06-14T01:45:07;11.80;99.90
50989;DHT22;37008;52.210;21.112;2023-06-14T01:47:33;11.80;99.90
50989;DHT22;37008;52.210;21.112;2023-06-14T01:50:00;11.80;99.90
50989;DHT22;37008;52.210;21.112;2023-06-14T01:52:25;11.80;99.90
50989;DHT22;37008;52.210;21.112;2023-06-14T01:54:51;11.80;99.90
50989;DHT22;37008;52.210;21.112;2023-06-14T01:57:17;11.80;99.90
50989;DHT22;37008;52.210;21.112;2023-06-14T01:59:42;11.90;99.90
50989;DHT22;37008;52.210;21.112;2023-06-14T02:02:08;11.90;99.90
50989;DHT22;37008;52.210;21.112;2023-06-14T02:04:35;11.90;99.90
50989;DHT22;37008;52.210;21.112;2023-06-14T02:07:00;11.90;99.90
50989;DHT22;37008;52.210;21.112;2023-06-14T02:09:26;11.90;99.90
50989;DHT22;37008;52.210;21.112;2023-06-14T02:11:53;11.90;99.90
50989;DHT22;37008;52.210;21.112;2023-06-14T02:14:19;11.90;99.90
50989;DHT22;37008;52.210;21.112;2023-06-14T02:16:44;11.90;99.90
50989;DHT22;37008;52.210;21.112;2023-06-14T02:19:18;11.90;99.90
50989;DHT22;37008;52.210;21.112;2023-06-14T02:21:44;11.90;99.90
50989;DHT22;37008;52.210;21.112;2023-06-14T02:24:10;11.90;99.90
50989;DHT22;37008;52.210;21.112;2023-06-14T02:26:36;12.00;99.90
50989;DHT22;37008;52.210;21.112;2023-06-14T02:29:04;11.90;99.90
50989;DHT22;37008;52.210;21.112;2023-06-14T02:31:34;11.90;99.90
50989;DHT22;37008;52.210;21.112;2023-06-14T02:34:00;12.00;99.90
50989;DHT22;37008;52.210;21.112;2023-06-14T02:36:26;11.90;99.90
50989;DHT22;37008;52.210;21.112;2023-06-14T02:38:51;11.90;99.90
50989;DHT22;37008;52.210;21.112;2023-06-14T02:41:19;12.00;99.90
50989;DHT22;37008;52.210;21.112;2023-06-14T02:43:45;12.00;99.90
50989;DHT22;37008;52.210;21.112;2023-06-14T02:46:10;12.00;99.90
50989;DHT22;37008;52.210;21.112;2023-06-14T02:48:36;12.00;99.90
50989;DHT22;37008;52.210;21.112;2023-06-14T02:51:02;12.00;99.90
50989;DHT22;37008;52.210;21.112;2023-06-14T02:53:27;12.00;99.90
50989;DHT22;37008;52.210;21.112;2023-06-14T02:55:53;12.00;99.90
50989;DHT22;37008;52.210;21.112;2023-06-14T02:58:20;12.00;99.90
50989;DHT22;37008;52.210;21.112;2023-06-14T03:00:46;12.00;99.90
50989;DHT22;37008;52.210;21.112;2023-06-14T03:03:12;12.00;99.90
50989;DHT22;37008;52.210;21.112;2023-06-14T03:05:45;12.00;99.90
50989;DHT22;37008;52.210;21.112;2023-06-14T03:08:14;12.00;99.90
50989;DHT22;37008;52.210;21.112;2023-06-14T03:10:43;12.00;99.90
50989;DHT22;37008;52.210;21.112;2023-06-14T03:13:08;12.10;99.90
50989;DHT22;37008;52.210;21.112;2023-06-14T03:15:36;12.10;99.90
50989;DHT22;37008;52.210;21.112;2023-06-14T03:18:01;12.00;99.90
50989;DHT22;37008;52.210;21.112;2023-06-14T03:20:27;12.00;99.90
50989;DHT22;37008;52.210;21.112;2023-06-14T03:22:55;12.10;99.90
50989;DHT22;37008;52.210;21.112;2023-06-14T03:25:20;12.00;99.90
50989;DHT22;37008;52.210;21.112;2023-06-14T03:27:47;12.10;99.90
50989;DHT22;37008;52.210;21.112;2023-06-14T03:30:13;12.00;99.90
50989;DHT22;37008;52.210;21.112;2023-06-14T03:32:39;12.00;99.90
50989;DHT22;37008;52.210;21.112;2023-06-14T03:35:05;12.00;99.90
50989;DHT22;37008;52.210;21.112;2023-06-14T03:37:31;12.00;99.90
50989;DHT22;37008;52.210;21.112;2023-06-14T03:39:56;12.00;99.90
50989;DHT22;37008;52.210;21.112;2023-06-14T03:42:22;12.00;99.90
50989;DHT22;37008;52.210;21.112;2023-06-14T03:44:47;12.10;99.90
50989;DHT22;37008;52.210;21.112;2023-06-14T03:47:13;12.10;99.90
50989;DHT22;37008;52.210;21.112;2023-06-14T03:49:39;12.10;99.90
50989;DHT22;37008;52.210;21.112;2023-06-14T03:52:06;12.10;99.90
50989;DHT22;37008;52.210;21.112;2023-06-14T03:54:31;12.20;99.90
50989;DHT22;37008;52.210;21.112;2023-06-14T03:56:58;12.20;99.90
50989;DHT22;37008;52.210;21.112;2023-06-14T03:59:24;12.20;99.90
50989;DHT22;37008;52.210;21.112;2023-06-14T04:01:51;12.30;99.90
50989;DHT22;37008;52.210;21.112;2023-06-14T04:04:16;12.30;99.90
50989;DHT22;37008;52.210;21.112;2023-06-14T04:06:42;12.40;99.90
50989;DHT22;37008;52.210;21.112;2023-06-14T04:09:08;12.40;99.90
50989;DHT22;37008;52.210;21.112;2023-06-14T04:11:33;12.50;99.90
50989;DHT22;37008;52.210;21.112;2023-06-14T04:13:59;12.60;99.90
50989;DHT22;37008;52.210;21.112;2023-06-14T04:16:25;12.60;99.90
50989;DHT22;37008;52.210;21.112;2023-06-14T04:18:50;12.70;99.90
50989;DHT22;37008;52.210;21.112;2023-06-14T04:21:18;12.70;99.90
50989;DHT22;37008;52.210;21.112;2023-06-14T04:23:43;12.70;99.90
50989;DHT22;37008;52.210;21.112;2023-06-14T04:26:09;12.80;99.90
50989;DHT22;37008;52.210;21.112;2023-06-14T04:28:36;12.70;99.90
50989;DHT22;37008;52.210;21.112;2023-06-14T04:31:06;12.80;99.90
50989;DHT22;37008;52.210;21.112;2023-06-14T04:33:36;12.80;99.90
50989;DHT22;37008;52.210;21.112;2023-06-14T04:36:11;12.90;99.90
50989;DHT22;37008;52.210;21.112;2023-06-14T04:38:42;12.90;99.90
50989;DHT22;37008;52.210;21.112;2023-06-14T04:41:10;12.90;99.90
50989;DHT22;37008;52.210;21.112;2023-06-14T04:43:37;12.90;99.90
50989;DHT22;37008;52.210;21.112;2023-06-14T04:46:04;13.00;99.90
50989;DHT22;37008;52.210;21.112;2023-06-14T04:48:31;13.00;99.90
50989;DHT22;37008;52.210;21.112;2023-06-14T04:50:57;13.00;99.90
50989;DHT22;37008;52.210;21.112;2023-06-14T04:53:23;13.10;99.90
50989;DHT22;37008;52.210;21.112;2023-06-14T04:55:49;13.10;99.90
50989;DHT22;37008;52.210;21.112;2023-06-14T04:58:15;13.10;99.90
50989;DHT22;37008;52.210;21.112;2023-06-14T05:00:41;13.20;99.90
50989;DHT22;37008;52.210;21.112;2023-06-14T05:03:09;13.20;99.90
50989;DHT22;37008;52.210;21.112;2023-06-14T05:05:35;13.20;99.90
50989;DHT22;37008;52.210;21.112;2023-06-14T05:08:00;13.20;99.90
50989;DHT22;37008;52.210;21.112;2023-06-14T05:10:26;13.30;99.90
50989;DHT22;37008;52.210;21.112;2023-06-14T05:12:52;13.40;99.90
50989;DHT22;37008;52.210;21.112;2023-06-14T05:15:18;13.40;99.90
50989;DHT22;37008;52.210;21.112;2023-06-14T05:17:45;13.40;99.90
50989;DHT22;37008;52.210;21.112;2023-06-14T05:20:19;13.40;99.90
50989;DHT22;37008;52.210;21.112;2023-06-14T05:22:45;13.50;99.90
50989;DHT22;37008;52.210;21.112;2023-06-14T05:25:11;13.50;99.90
50989;DHT22;37008;52.210;21.112;2023-06-14T05:27:36;13.60;99.90
50989;DHT22;37008;52.210;21.112;2023-06-14T05:30:03;13.60;99.90
50989;DHT22;37008;52.210;21.112;2023-06-14T05:32:29;13.70;99.90
50989;DHT22;37008;52.210;21.112;2023-06-14T05:34:55;13.70;99.90
50989;DHT22;37008;52.210;21.112;2023-06-14T05:37:21;13.70;99.90
50989;DHT22;37008;52.210;21.112;2023-06-14T05:39:46;13.70;99.90
50989;DHT22;37008;52.210;21.112;2023-06-14T05:42:13;13.70;99.90
50989;DHT22;37008;52.210;21.112;2023-06-14T05:44:38;13.70;99.90
50989;DHT22;37008;52.210;21.112;2023-06-14T05:47:04;13.80;99.90
50989;DHT22;37008;52.210;21.112;2023-06-14T05:49:30;13.80;99.90
50989;DHT22;37008;52.210;21.112;2023-06-14T05:51:56;13.90;99.90
50989;DHT22;37008;52.210;21.112;2023-06-14T05:54:22;13.90;99.90
50989;DHT22;37008;52.210;21.112;2023-06-14T05:56:48;13.90;99.90
50989;DHT22;37008;52.210;21.112;2023-06-14T05:59:14;13.90;99.90
50989;DHT22;37008;52.210;21.112;2023-06-14T06:01:39;13.90;99.90
50989;DHT22;37008;52.210;21.112;2023-06-14T06:04:05;13.90;99.90
50989;DHT22;37008;52.210;21.112;2023-06-14T06:06:31;13.90;99.90
50989;DHT22;37008;52.210;21.112;2023-06-14T06:08:58;13.90;99.90
50989;DHT22;37008;52.210;21.112;2023-06-14T06:11:24;13.90;99.90
50989;DHT22;37008;52.210;21.112;2023-06-14T06:13:50;14.00;99.90
50989;DHT22;37008;52.210;21.112;2023-06-14T06:16:16;14.10;99.90
50989;DHT22;37008;52.210;21.112;2023-06-14T06:18:42;14.20;99.90
50989;DHT22;37008;52.210;21.112;2023-06-14T06:21:08;14.30;99.90
50989;DHT22;37008;52.210;21.112;2023-06-14T06:23:33;14.30;99.90
50989;DHT22;37008;52.210;21.112;2023-06-14T06:25:59;14.30;99.90
50989;DHT22;37008;52.210;21.112;2023-06-14T06:28:24;14.40;99.90
50989;DHT22;37008;52.210;21.112;2023-06-14T06:30:50;14.40;99.90
50989;DHT22;37008;52.210;21.112;2023-06-14T06:33:16;14.50;99.90
50989;DHT22;37008;52.210;21.112;2023-06-14T06:35:41;14.60;99.90
50989;DHT22;37008;52.210;21.112;2023-06-14T06:38:08;14.70;99.90
50989;DHT22;37008;52.210;21.112;2023-06-14T06:40:35;14.70;99.90
50989;DHT22;37008;52.210;21.112;2023-06-14T06:43:02;14.80;99.90
50989;DHT22;37008;52.210;21.112;2023-06-14T06:45:28;14.80;99.90
50989;DHT22;37008;52.210;21.112;2023-06-14T06:47:53;14.70;99.90
50989;DHT22;37008;52.210;21.112;2023-06-14T06:50:19;14.70;99.90
50989;DHT22;37008;52.210;21.112;2023-06-14T06:52:45;14.70;99.90
50989;DHT22;37008;52.210;21.112;2023-06-14T06:55:11;14.70;99.90
50989;DHT22;37008;52.210;21.112;2023-06-14T06:57:37;14.70;99.90
50989;DHT22;37008;52.210;21.112;2023-06-14T07:00:02;14.70;99.90
50989;DHT22;37008;52.210;21.112;2023-06-14T07:02:33;14.70;99.90
50989;DHT22;37008;52.210;21.112;2023-06-14T07:04:59;14.70;99.90
50989;DHT22;37008;52.210;21.112;2023-06-14T07:07:25;14.80;99.90
50989;DHT22;37008;52.210;21.112;2023-06-14T07:09:51;14.90;99.90
50989;DHT22;37008;52.210;21.112;2023-06-14T07:12:17;14.90;99.90
50989;DHT22;37008;52.210;21.112;2023-06-14T07:14:42;15.00;99.90
50989;DHT22;37008;52.210;21.112;2023-06-14T07:17:10;15.10;99.90
50989;DHT22;37008;52.210;21.112;2023-06-14T07:19:35;15.20;99.90
50989;DHT22;37008;52.210;21.112;2023-06-14T07:22:01;15.30;99.90
50989;DHT22;37008;52.210;21.112;2023-06-14T07:24:26;15.30;99.90
50989;DHT22;37008;52.210;21.112;2023-06-14T07:26:53;15.40;99.90
50989;DHT22;37008;52.210;21.112;2023-06-14T07:29:20;15.50;99.90
50989;DHT22;37008;52.210;21.112;2023-06-14T07:31:46;15.60;99.90
50989;DHT22;37008;52.210;21.112;2023-06-14T07:34:12;15.70;99.90
50989;DHT22;37008;52.210;21.112;2023-06-14T07:36:37;15.80;99.90
50989;DHT22;37008;52.210;21.112;2023-06-14T07:39:04;16.00;99.90
50989;DHT22;37008;52.210;21.112;2023-06-14T07:41:31;16.10;99.90
50989;DHT22;37008;52.210;21.112;2023-06-14T07:43:56;16.30;99.90
50989;DHT22;37008;52.210;21.112;2023-06-14T07:46:22;16.50;99.90
50989;DHT22;37008;52.210;21.112;2023-06-14T07:48:48;16.70;99.90
50989;DHT22;37008;52.210;21.112;2023-06-14T07:51:13;16.80;99.90
50989;DHT22;37008;52.210;21.112;2023-06-14T07:53:39;16.90;99.90
50989;DHT22;37008;52.210;21.112;2023-06-14T07:56:06;17.20;99.90
50989;DHT22;37008;52.210;21.112;2023-06-14T07:58:32;17.20;99.90
50989;DHT22;37008;52.210;21.112;2023-06-14T08:00:57;17.30;99.90
50989;DHT22;37008;52.210;21.112;2023-06-14T08:03:24;17.40;99.90
50989;DHT22;37008;52.210;21.112;2023-06-14T08:05:50;17.40;99.90
50989;DHT22;37008;52.210;21.112;2023-06-14T08:08:16;17.50;99.90
50989;DHT22;37008;52.210;21.112;2023-06-14T08:10:43;17.40;99.90
50989;DHT22;37008;52.210;21.112;2023-06-14T08:13:08;17.40;99.90
50989;DHT22;37008;52.210;21.112;2023-06-14T08:15:35;17.40;99.90
50989;DHT22;37008;52.210;21.112;2023-06-14T08:18:11;17.50;99.90
50989;DHT22;37008;52.210;21.112;2023-06-14T08:20:36;17.60;99.90
50989;DHT22;37008;52.210;21.112;2023-06-14T08:23:03;17.60;99.90
50989;DHT22;37008;52.210;21.112;2023-06-14T08:25:30;17.60;99.90
50989;DHT22;37008;52.210;21.112;2023-06-14T08:27:56;17.50;99.90
50989;DHT22;37008;52.210;21.112;2023-06-14T08:30:22;17.40;99.90
50989;DHT22;37008;52.210;21.112;2023-06-14T08:32:48;17.50;99.90
50989;DHT22;37008;52.210;21.112;2023-06-14T08:35:13;17.40;99.90
50989;DHT22;37008;52.210;21.112;2023-06-14T08:37:40;17.30;99.90
50989;DHT22;37008;52.210;21.112;2023-06-14T08:40:22;17.40;99.90
50989;DHT22;37008;52.210;21.112;2023-06-14T08:42:51;17.40;99.90
50989;DHT22;37008;52.210;21.112;2023-06-14T08:45:17;17.40;99.90
50989;DHT22;37008;52.210;21.112;2023-06-14T08:47:44;17.40;99.90
50989;DHT22;37008;52.210;21.112;2023-06-14T08:50:11;17.40;99.90
50989;DHT22;37008;52.210;21.112;2023-06-14T08:52:38;17.50;99.90
50989;DHT22;37008;52.210;21.112;2023-06-14T08:55:15;17.50;99.90
50989;DHT22;37008;52.210;21.112;2023-06-14T08:57:43;17.70;99.90
50989;DHT22;37008;52.210;21.112;2023-06-14T09:00:10;17.80;99.90
50989;DHT22;37008;52.210;21.112;2023-06-14T09:02:39;18.00;99.90
50989;DHT22;37008;52.210;21.112;2023-06-14T09:05:15;18.10;99.90
50989;DHT22;37008;52.210;21.112;2023-06-14T09:07:44;18.40;99.90
50989;DHT22;37008;52.210;21.112;2023-06-14T09:10:12;18.50;99.90
50989;DHT22;37008;52.210;21.112;2023-06-14T09:12:38;18.70;99.90
50989;DHT22;37008;52.210;21.112;2023-06-14T09:15:08;18.90;99.90
50989;DHT22;37008;52.210;21.112;2023-06-14T09:17:37;19.00;99.90
50989;DHT22;37008;52.210;21.112;2023-06-14T09:20:04;19.20;99.90
50989;DHT22;37008;52.210;21.112;2023-06-14T09:22:39;19.30;99.90
50989;DHT22;37008;52.210;21.112;2023-06-14T09:25:05;19.20;99.90
50989;DHT22;37008;52.210;21.112;2023-06-14T09:27:31;19.10;99.90
50989;DHT22;37008;52.210;21.112;2023-06-14T09:29:57;19.00;99.90
50989;DHT22;37008;52.210;21.112;2023-06-14T09:32:25;19.10;99.90
50989;DHT22;37008;52.210;21.112;2023-06-14T09:34:50;19.10;99.90
50989;DHT22;37008;52.210;21.112;2023-06-14T09:37:32;19.10;99.90
50989;DHT22;37008;52.210;21.112;2023-06-14T09:39:59;19.00;99.90
50989;DHT22;37008;52.210;21.112;2023-06-14T09:42:25;19.00;98.90
50989;DHT22;37008;52.210;21.112;2023-06-14T09:44:53;19.00;98.60
50989;DHT22;37008;52.210;21.112;2023-06-14T09:47:24;18.90;99.40
50989;DHT22;37008;52.210;21.112;2023-06-14T09:49:51;19.00;98.70
50989;DHT22;37008;52.210;21.112;2023-06-14T09:52:18;19.00;96.70
50989;DHT22;37008;52.210;21.112;2023-06-14T09:54:46;19.00;95.60
50989;DHT22;37008;52.210;21.112;2023-06-14T09:57:14;18.90;95.30
50989;DHT22;37008;52.210;21.112;2023-06-14T09:59:44;19.00;96.20
50989;DHT22;37008;52.210;21.112;2023-06-14T10:02:22;19.00;96.00
50989;DHT22;37008;52.210;21.112;2023-06-14T10:05:02;19.10;96.10
50989;DHT22;37008;52.210;21.112;2023-06-14T10:07:34;19.20;95.50
50989;DHT22;37008;52.210;21.112;2023-06-14T10:10:01;19.30;94.50
50989;DHT22;37008;52.210;21.112;2023-06-14T10:12:27;19.40;92.90
50989;DHT22;37008;52.210;21.112;2023-06-14T10:14:53;19.50;91.80
50989;DHT22;37008;52.210;21.112;2023-06-14T10:19:55;19.60;91.60
50989;DHT22;37008;52.210;21.112;2023-06-14T10:22:32;19.70;91.60
50989;DHT22;37008;52.210;21.112;2023-06-14T10:24:59;19.80;91.00
50989;DHT22;37008;52.210;21.112;2023-06-14T10:27:26;19.80;89.30
50989;DHT22;37008;52.210;21.112;2023-06-14T10:32:24;19.90;85.40
50989;DHT22;37008;52.210;21.112;2023-06-14T10:35:00;19.90;85.00
50989;DHT22;37008;52.210;21.112;2023-06-14T10:37:26;19.90;82.20
50989;DHT22;37008;52.210;21.112;2023-06-14T10:39:53;19.90;83.60
50989;DHT22;37008;52.210;21.112;2023-06-14T10:42:19;19.90;84.00
50989;DHT22;37008;52.210;21.112;2023-06-14T10:44:45;19.90;86.80
50989;DHT22;37008;52.210;21.112;2023-06-14T10:47:28;20.00;86.40
50989;DHT22;37008;52.210;21.112;2023-06-14T10:50:05;20.00;83.10
50989;DHT22;37008;52.210;21.112;2023-06-14T10:52:39;19.80;78.70
50989;DHT22;37008;52.210;21.112;2023-06-14T10:55:16;19.70;79.50
50989;DHT22;37008;52.210;21.112;2023-06-14T10:57:49;19.60;79.90
50989;DHT22;37008;52.210;21.112;2023-06-14T11:00:22;19.50;80.00
50989;DHT22;37008;52.210;21.112;2023-06-14T11:05:54;19.60;82.80
50989;DHT22;37008;52.210;21.112;2023-06-14T11:11:13;19.60;81.80
50989;DHT22;37008;52.210;21.112;2023-06-14T11:13:41;19.60;82.60
50989;DHT22;37008;52.210;21.112;2023-06-14T11:16:18;19.50;83.60
50989;DHT22;37008;52.210;21.112;2023-06-14T11:18:46;19.70;82.70
50989;DHT22;37008;52.210;21.112;2023-06-14T11:21:19;19.70;83.40
50989;DHT22;37008;52.210;21.112;2023-06-14T11:23:51;19.90;83.70
50989;DHT22;37008;52.210;21.112;2023-06-14T11:26:27;20.10;83.90
50989;DHT22;37008;52.210;21.112;2023-06-14T11:28:58;20.30;81.50
50989;DHT22;37008;52.210;21.112;2023-06-14T11:31:25;20.30;80.90
50989;DHT22;37008;52.210;21.112;2023-06-14T11:33:54;20.30;80.10
50989;DHT22;37008;52.210;21.112;2023-06-14T11:36:20;20.20;80.80
50989;DHT22;37008;52.210;21.112;2023-06-14T11:38:45;20.20;80.40
50989;DHT22;37008;52.210;21.112;2023-06-14T11:41:11;20.10;77.70
50989;DHT22;37008;52.210;21.112;2023-06-14T11:43:36;19.90;77.80
50989;DHT22;37008;52.210;21.112;2023-06-14T11:46:02;19.80;78.20
50989;DHT22;37008;52.210;21.112;2023-06-14T11:48:42;19.80;75.40
50989;DHT22;37008;52.210;21.112;2023-06-14T11:51:08;19.70;74.70
50989;DHT22;37008;52.210;21.112;2023-06-14T11:53:34;19.80;75.50
50989;DHT22;37008;52.210;21.112;2023-06-14T11:56:02;20.00;73.70
50989;DHT22;37008;52.210;21.112;2023-06-14T11:58:29;20.10;71.10
50989;DHT22;37008;52.210;21.112;2023-06-14T12:00:55;20.20;69.90
50989;DHT22;37008;52.210;21.112;2023-06-14T12:03:25;20.20;70.70
50989;DHT22;37008;52.210;21.112;2023-06-14T12:06:01;20.20;69.20
50989;DHT22;37008;52.210;21.112;2023-06-14T12:08:32;20.00;64.30
50989;DHT22;37008;52.210;21.112;2023-06-14T12:11:04;19.80;64.60
50989;DHT22;37008;52.210;21.112;2023-06-14T12:13:29;19.60;62.60
50989;DHT22;37008;52.210;21.112;2023-06-14T12:15:58;19.50;63.30
50989;DHT22;37008;52.210;21.112;2023-06-14T12:18:38;19.30;63.70
50989;DHT22;37008;52.210;21.112;2023-06-14T12:21:05;19.30;63.90
50989;DHT22;37008;52.210;21.112;2023-06-14T12:23:42;19.50;64.20
50989;DHT22;37008;52.210;21.112;2023-06-14T12:26:08;19.60;64.20
50989;DHT22;37008;52.210;21.112;2023-06-14T12:28:34;19.80;62.70
50989;DHT22;37008;52.210;21.112;2023-06-14T12:30:59;19.90;62.10
50989;DHT22;37008;52.210;21.112;2023-06-14T12:33:25;20.10;60.70
50989;DHT22;37008;52.210;21.112;2023-06-14T12:35:53;20.40;61.20
50989;DHT22;37008;52.210;21.112;2023-06-14T12:38:20;20.60;61.70
50989;DHT22;37008;52.210;21.112;2023-06-14T12:40:46;20.80;61.10
50989;DHT22;37008;52.210;21.112;2023-06-14T12:43:12;20.80;58.60
50989;DHT22;37008;52.210;21.112;2023-06-14T12:45:37;20.60;58.40
50989;DHT22;37008;52.210;21.112;2023-06-14T12:48:03;20.40;59.70
50989;DHT22;37008;52.210;21.112;2023-06-14T12:50:29;20.30;60.20
50989;DHT22;37008;52.210;21.112;2023-06-14T12:52:55;20.30;60.00
50989;DHT22;37008;52.210;21.112;2023-06-14T12:55:21;20.30;60.80
50989;DHT22;37008;52.210;21.112;2023-06-14T12:57:48;20.20;58.30
50989;DHT22;37008;52.210;21.112;2023-06-14T13:00:15;19.90;58.10
50989;DHT22;37008;52.210;21.112;2023-06-14T13:02:41;19.70;58.80
50989;DHT22;37008;52.210;21.112;2023-06-14T13:05:06;19.60;59.10
50989;DHT22;37008;52.210;21.112;2023-06-14T13:07:32;19.50;58.80
50989;DHT22;37008;52.210;21.112;2023-06-14T13:09:58;19.50;59.60
50989;DHT22;37008;52.210;21.112;2023-06-14T13:12:23;19.50;59.70
50989;DHT22;37008;52.210;21.112;2023-06-14T13:14:50;19.60;60.70
50989;DHT22;37008;52.210;21.112;2023-06-14T13:17:16;19.90;60.30
50989;DHT22;37008;52.210;21.112;2023-06-14T13:19:41;20.00;59.30
50989;DHT22;37008;52.210;21.112;2023-06-14T13:22:08;20.20;59.60
50989;DHT22;37008;52.210;21.112;2023-06-14T13:24:34;20.40;58.80
50989;DHT22;37008;52.210;21.112;2023-06-14T13:26:59;20.40;57.50
50989;DHT22;37008;52.210;21.112;2023-06-14T13:29:25;20.40;57.50
50989;DHT22;37008;52.210;21.112;2023-06-14T13:31:52;20.50;58.20
50989;DHT22;37008;52.210;21.112;2023-06-14T13:34:18;20.50;57.20
50989;DHT22;37008;52.210;21.112;2023-06-14T13:36:46;20.60;57.50
50989;DHT22;37008;52.210;21.112;2023-06-14T13:39:11;20.70;57.20
50989;DHT22;37008;52.210;21.112;2023-06-14T13:41:37;20.80;57.70
50989;DHT22;37008;52.210;21.112;2023-06-14T13:44:03;21.00;57.50
50989;DHT22;37008;52.210;21.112;2023-06-14T13:46:31;21.00;57.00
50989;DHT22;37008;52.210;21.112;2023-06-14T13:48:57;20.90;57.10
50989;DHT22;37008;52.210;21.112;2023-06-14T13:51:23;20.80;57.00
50989;DHT22;37008;52.210;21.112;2023-06-14T13:53:49;20.80;57.60
50989;DHT22;37008;52.210;21.112;2023-06-14T13:56:16;20.70;57.70
50989;DHT22;37008;52.210;21.112;2023-06-14T13:58:42;20.60;57.00
50989;DHT22;37008;52.210;21.112;2023-06-14T14:01:08;20.50;56.70
50989;DHT22;37008;52.210;21.112;2023-06-14T14:03:34;20.50;57.60
50989;DHT22;37008;52.210;21.112;2023-06-14T14:06:01;20.50;57.40
50989;DHT22;37008;52.210;21.112;2023-06-14T14:08:27;20.60;57.60
50989;DHT22;37008;52.210;21.112;2023-06-14T14:10:53;20.70;57.10
50989;DHT22;37008;52.210;21.112;2023-06-14T14:13:20;20.60;57.20
50989;DHT22;37008;52.210;21.112;2023-06-14T14:15:46;20.60;58.00
50989;DHT22;37008;52.210;21.112;2023-06-14T14:18:12;21.00;57.50
50989;DHT22;37008;52.210;21.112;2023-06-14T14:20:37;22.20;56.10
50989;DHT22;37008;52.210;21.112;2023-06-14T14:23:03;23.50;53.50
50989;DHT22;37008;52.210;21.112;2023-06-14T14:25:29;23.90;51.40
50989;DHT22;37008;52.210;21.112;2023-06-14T14:27:55;24.00;51.70
50989;DHT22;37008;52.210;21.112;2023-06-14T14:30:21;24.00;50.90
50989;DHT22;37008;52.210;21.112;2023-06-14T14:32:49;23.70;51.20
50989;DHT22;37008;52.210;21.112;2023-06-14T14:35:16;23.20;50.80
50989;DHT22;37008;52.210;21.112;2023-06-14T14:37:43;22.40;51.50
50989;DHT22;37008;52.210;21.112;2023-06-14T14:40:08;21.80;53.10
50989;DHT22;37008;52.210;21.112;2023-06-14T14:42:35;21.30;54.40
50989;DHT22;37008;52.210;21.112;2023-06-14T14:45:01;21.00;55.40
50989;DHT22;37008;52.210;21.112;2023-06-14T14:47:27;20.70;55.20
50989;DHT22;37008;52.210;21.112;2023-06-14T14:49:53;20.60;55.70
50989;DHT22;37008;52.210;21.112;2023-06-14T14:52:19;20.50;56.50
50989;DHT22;37008;52.210;21.112;2023-06-14T14:54:44;20.50;56.70
50989;DHT22;37008;52.210;21.112;2023-06-14T14:57:10;21.00;56.70
50989;DHT22;37008;52.210;21.112;2023-06-14T14:59:36;22.30;54.90
50989;DHT22;37008;52.210;21.112;2023-06-14T15:02:02;23.70;51.60
50989;DHT22;37008;52.210;21.112;2023-06-14T15:04:28;25.00;49.50
50989;DHT22;37008;52.210;21.112;2023-06-14T15:06:53;26.10;47.70
50989;DHT22;37008;52.210;21.112;2023-06-14T15:09:19;27.00;45.60
50989;DHT22;37008;52.210;21.112;2023-06-14T15:11:44;27.90;45.00
50989;DHT22;37008;52.210;21.112;2023-06-14T15:14:10;28.50;41.90
50989;DHT22;37008;52.210;21.112;2023-06-14T15:16:36;28.50;40.40
50989;DHT22;37008;52.210;21.112;2023-06-14T15:19:01;28.30;41.10
50989;DHT22;37008;52.210;21.112;2023-06-14T15:21:27;27.70;41.70
50989;DHT22;37008;52.210;21.112;2023-06-14T15:23:53;27.10;42.00
50989;DHT22;37008;52.210;21.112;2023-06-14T15:26:20;27.30;42.50
50989;DHT22;37008;52.210;21.112;2023-06-14T15:28:46;27.00;42.50
50989;DHT22;37008;52.210;21.112;2023-06-14T15:31:11;26.60;43.00